Time,TemperatureF,DewpointF,PressureIn,WindDirection,WindDirectionDegrees,WindSpeedMPH,WindSpeedGustMPH,Humidity,HourlyPrecipIn,Conditions,Clouds,dailyrainin,SolarRadiationWatts/m^2,SoftwareType,DateUTC
2013-06-21 00:01:00,69.3,57.5,30.30,ESE,113,1.0,2.0,66,0.00,,,0.00,0,Wunderground v.1.15,2013-06-21 04:01:00,
2013-06-21 00:02:00,69.3,57.5,30.30,ESE,113,1.0,2.0,66,0.00,,,0.00,0,Wunderground v.1.15,2013-06-21 04:02:00,
2013-06-21 00:04:00,69.2,57.4,30.30,ESE,121,0.0,2.0,66,0.00,,,0.00,0,Wunderground v.1.15,2013-06-21 04:04:00,
2013-06-21 00:10:00,69.2,57.4,30.30,ESE,121,1.0,2.0,66,0.00,,,0.00,0,Wunderground v.1.15,2013-06-21 04:10:00,
2013-06-21 00:13:00,69.2,57.4,30.30,ESE,121,1.0,2.0,66,0.00,,,0.00,0,Wunderground v.1.15,2013-06-21 04:13:00,
2013-06-21 00:18:00,69.1,57.7,30.30,SSE,149,1.0,2.0,67,0.00,,,0.00,0,Wunderground v.1.15,2013-06-21 04:18:00,
2013-06-21 00:23:00,69.0,57.6,30.30,SE,146,1.0,2.0,67,0.00,,,0.00,0,Wunderground v.1.15,2013-06-21 04:23:00,
2013-06-21 00:29:00,68.8,57.4,30.30,SE,145,1.0,3.0,67,0.00,,,0.00,0,Wunderground v.1.15,2013-06-21 04:29:00,
2013-06-21 00:35:00,68.5,57.9,30.30,SE,145,1.0,2.0,69,0.00,,,0.00,0,Wunderground v.1.15,2013-06-21 04:35:00,
2013-06-21 00:41:00,67.9,57.8,30.30,SE,145,1.0,2.0,70,0.00,,,0.00,0,Wunderground v.1.15,2013-06-21 04:41:00,
2013-06-21 00:46:00,67.5,57.8,30.30,SE,145,0.0,2.0,71,0.00,,,0.00,0,Wunderground v.1.15,2013-06-21 04:46:00,
2013-06-21 00:52:00,67.2,57.9,30.30,SE,145,1.0,2.0,72,0.00,,,0.00,0,Wunderground v.1.15,2013-06-21 04:52:00,
2013-06-21 00:58:00,66.8,57.9,30.30,SE,145,1.0,2.0,73,0.00,,,0.00,0,Wunderground v.1.15,2013-06-21 04:58:00,
2013-06-21 01:03:00,66.4,57.9,30.30,SE,145,0.0,1.0,74,0.00,,,0.00,0,Wunderground v.1.15,2013-06-21 05:03:00,
2013-06-21 01:08:00,66.2,58.0,30.29,SE,145,0.0,1.0,75,0.00,,,0.00,0,Wunderground v.1.15,2013-06-21 05:08:00,
2013-06-21 01:14:00,66.0,57.8,30.30,SE,145,0.0,1.0,75,0.00,,,0.00,0,Wunderground v.1.15,2013-06-21 05:14:00,
2013-06-21 01:19:00,65.9,57.7,30.29,SE,145,0.0,1.0,75,0.00,,,0.00,0,Wunderground v.1.15,2013-06-21 05:19:00,
2013-06-21 01:25:00,65.7,57.9,30.29,SE,145,0.0,1.0,76,0.00,,,0.00,0,Wunderground v.1.15,2013-06-21 05:25:00,
2013-06-21 01:30:00,65.6,57.8,30.29,SE,145,0.0,1.0,76,0.00,,,0.00,0,Wunderground v.1.15,2013-06-21 05:30:00,
2013-06-21 01:36:00,65.4,57.3,30.29,SE,145,0.0,1.0,75,0.00,,,0.00,0,Wunderground v.1.15,2013-06-21 05:36:00,
2013-06-21 01:42:00,65.3,57.9,30.29,SE,145,0.0,1.0,77,0.00,,,0.00,0,Wunderground v.1.15,2013-06-21 05:42:00,
2013-06-21 01:48:00,65.1,57.7,30.30,SE,145,0.0,1.0,77,0.00,,,0.00,0,Wunderground v.1.15,2013-06-21 05:48:00,
2013-06-21 01:54:00,65.0,57.2,30.30,SE,145,0.0,1.0,76,0.00,,,0.00,0,Wunderground v.1.15,2013-06-21 05:54:00,
2013-06-21 02:00:00,64.9,57.5,30.30,SE,145,0.0,0.0,77,0.00,,,0.00,0,Wunderground v.1.15,2013-06-21 06:00:00,
2013-06-21 02:06:00,64.7,57.7,30.30,SE,145,0.0,0.0,78,0.00,,,0.00,0,Wunderground v.1.15,2013-06-21 06:06:00,
2013-06-21 02:12:00,64.5,57.8,30.30,SE,145,0.0,0.0,79,0.00,,,0.00,0,Wunderground v.1.15,2013-06-21 06:12:00,
2013-06-21 02:18:00,64.3,58.0,30.30,SE,145,0.0,2.0,80,0.00,,,0.00,0,Wunderground v.1.15,2013-06-21 06:18:00,
2013-06-21 02:24:00,64.0,58.1,30.30,SE,145,1.0,2.0,81,0.00,,,0.00,0,Wunderground v.1.15,2013-06-21 06:24:00,
2013-06-21 02:30:00,63.9,58.3,30.29,SE,145,1.0,1.0,82,0.00,,,0.00,0,Wunderground v.1.15,2013-06-21 06:30:00,
2013-06-21 02:36:00,63.8,58.2,30.29,SE,145,0.0,1.0,82,0.00,,,0.00,0,Wunderground v.1.15,2013-06-21 06:36:00,
2013-06-21 02:42:00,63.7,58.1,30.29,SE,145,0.0,0.0,82,0.00,,,0.00,0,Wunderground v.1.15,2013-06-21 06:42:00,
2013-06-21 02:48:00,63.5,57.9,30.30,SE,145,0.0,0.0,82,0.00,,,0.00,0,Wunderground v.1.15,2013-06-21 06:48:00,
2013-06-21 02:53:00,63.3,57.7,30.29,SE,145,0.0,1.0,82,0.00,,,0.00,0,Wunderground v.1.15,2013-06-21 06:53:00,
2013-06-21 02:59:00,63.2,58.6,30.30,SE,145,0.0,1.0,85,0.00,,,0.00,0,Wunderground v.1.15,2013-06-21 06:59:00,
2013-06-21 03:05:00,63.0,58.4,30.30,SE,145,0.0,1.0,85,0.00,,,0.00,0,Wunderground v.1.15,2013-06-21 07:05:00,
2013-06-21 03:11:00,62.8,57.6,30.30,SE,145,0.0,1.0,83,0.00,,,0.00,0,Wunderground v.1.15,2013-06-21 07:11:00,
2013-06-21 03:16:00,62.7,57.8,30.30,SE,145,0.0,1.0,84,0.00,,,0.00,0,Wunderground v.1.15,2013-06-21 07:16:00,
2013-06-21 03:22:00,62.5,57.9,30.30,SE,145,1.0,1.0,85,0.00,,,0.00,0,Wunderground v.1.15,2013-06-21 07:22:00,
2013-06-21 03:28:00,62.2,57.6,30.30,SE,145,1.0,1.0,85,0.00,,,0.00,0,Wunderground v.1.15,2013-06-21 07:28:00,
2013-06-21 03:33:00,62.1,58.2,30.30,SE,145,1.0,1.0,87,0.00,,,0.00,0,Wunderground v.1.15,2013-06-21 07:33:00,
2013-06-21 03:39:00,62.0,58.4,30.30,SE,145,1.0,1.0,88,0.00,,,0.00,0,Wunderground v.1.15,2013-06-21 07:39:00,
2013-06-21 03:45:00,61.9,58.3,30.30,SE,145,0.0,1.0,88,0.00,,,0.00,0,Wunderground v.1.15,2013-06-21 07:45:00,
2013-06-21 03:51:00,61.7,58.4,30.30,SE,145,1.0,1.0,89,0.00,,,0.00,0,Wunderground v.1.15,2013-06-21 07:51:00,
2013-06-21 03:56:00,61.6,58.3,30.30,NE,53,1.0,1.0,89,0.00,,,0.00,0,Wunderground v.1.15,2013-06-21 07:56:00,
2013-06-21 04:02:00,61.6,58.3,30.30,NE,44,1.0,1.0,89,0.00,,,0.00,0,Wunderground v.1.15,2013-06-21 08:02:00,
2013-06-21 04:07:00,61.5,57.6,30.30,NE,43,0.0,1.0,87,0.00,,,0.00,0,Wunderground v.1.15,2013-06-21 08:07:00,
2013-06-21 04:13:00,61.5,57.9,30.30,ESE,121,0.0,1.0,88,0.00,,,0.00,0,Wunderground v.1.15,2013-06-21 08:13:00,
2013-06-21 04:19:00,61.4,57.8,30.30,SE,133,1.0,2.0,88,0.00,,,0.00,0,Wunderground v.1.15,2013-06-21 08:19:00,
2013-06-21 04:25:00,61.2,57.6,30.30,ESE,119,1.0,2.0,88,0.00,,,0.00,0,Wunderground v.1.15,2013-06-21 08:25:00,
2013-06-21 04:30:00,61.1,57.5,30.30,ESE,119,1.0,1.0,88,0.00,,,0.00,0,Wunderground v.1.15,2013-06-21 08:30:00,
2013-06-21 04:36:00,60.9,57.3,30.30,ESE,119,0.0,1.0,88,0.00,,,0.00,0,Wunderground v.1.15,2013-06-21 08:36:00,
2013-06-21 04:41:00,60.8,57.2,30.30,ESE,119,0.0,1.0,88,0.00,,,0.00,0,Wunderground v.1.15,2013-06-21 08:41:00,
2013-06-21 04:47:00,60.8,57.2,30.30,ESE,119,0.0,1.0,88,0.00,,,0.00,0,Wunderground v.1.15,2013-06-21 08:47:00,
2013-06-21 04:52:00,60.7,57.1,30.30,ESE,119,0.0,1.0,88,0.00,,,0.00,0,Wunderground v.1.15,2013-06-21 08:52:00,
2013-06-21 04:58:00,60.7,57.1,30.31,East,86,1.0,2.0,88,0.00,,,0.00,0,Wunderground v.1.15,2013-06-21 08:58:00,
2013-06-21 05:05:00,60.6,57.0,30.32,ENE,76,1.0,2.0,88,0.00,,,0.00,0,Wunderground v.1.15,2013-06-21 09:05:00,
2013-06-21 05:11:00,60.5,57.2,30.32,SSE,152,1.0,2.0,89,0.00,,,0.00,0,Wunderground v.1.15,2013-06-21 09:11:00,
2013-06-21 05:17:00,60.4,57.1,30.32,SSE,152,1.0,2.0,89,0.00,,,0.00,0,Wunderground v.1.15,2013-06-21 09:17:00,
2013-06-21 05:23:00,60.2,56.9,30.32,SSE,152,0.0,2.0,89,0.00,,,0.00,0,Wunderground v.1.15,2013-06-21 09:23:00,
2013-06-21 05:29:00,60.0,56.7,30.32,SSE,152,0.0,2.0,89,0.00,,,0.00,0,Wunderground v.1.15,2013-06-21 09:29:00,
2013-06-21 05:35:00,60.0,57.1,30.33,SSE,152,0.0,2.0,90,0.00,,,0.00,0,Wunderground v.1.15,2013-06-21 09:35:00,
2013-06-21 05:40:00,59.9,57.0,30.33,SSE,152,1.0,2.0,90,0.00,,,0.00,5,Wunderground v.1.15,2013-06-21 09:40:00,
2013-06-21 05:46:00,59.8,56.9,30.33,SSE,152,0.0,2.0,90,0.00,,,0.00,9,Wunderground v.1.15,2013-06-21 09:46:00,
2013-06-21 05:52:00,59.7,57.1,30.33,SSE,152,0.0,2.0,91,0.00,,,0.00,12,Wunderground v.1.15,2013-06-21 09:52:00,
2013-06-21 05:57:00,59.6,57.0,30.33,SSE,152,1.0,2.0,91,0.00,,,0.00,14,Wunderground v.1.15,2013-06-21 09:57:00,
2013-06-21 06:03:00,59.6,57.0,30.33,SSE,152,0.0,1.0,91,0.00,,,0.00,19,Wunderground v.1.15,2013-06-21 10:03:00,
2013-06-21 06:09:00,59.5,57.2,30.33,SSE,152,0.0,1.0,92,0.00,,,0.00,23,Wunderground v.1.15,2013-06-21 10:09:00,
2013-06-21 06:15:00,59.5,56.9,30.33,SSE,152,0.0,1.0,91,0.00,,,0.00,28,Wunderground v.1.15,2013-06-21 10:15:00,
2013-06-21 06:20:00,59.6,57.0,30.33,SSE,152,0.0,1.0,91,0.00,,,0.00,33,Wunderground v.1.15,2013-06-21 10:20:00,
2013-06-21 06:26:00,59.6,57.0,30.33,SSE,152,0.0,1.0,91,0.00,,,0.00,47,Wunderground v.1.15,2013-06-21 10:26:00,
2013-06-21 06:32:00,59.7,57.1,30.33,SSE,152,0.0,1.0,91,0.00,,,0.00,62,Wunderground v.1.15,2013-06-21 10:32:00,
2013-06-21 06:37:00,59.8,57.2,30.33,SSE,152,0.0,1.0,91,0.00,,,0.00,63,Wunderground v.1.15,2013-06-21 10:37:00,
2013-06-21 06:43:00,60.0,57.4,30.33,SSE,152,0.0,1.0,91,0.00,,,0.00,67,Wunderground v.1.15,2013-06-21 10:43:00,
2013-06-21 06:49:00,60.2,57.3,30.33,SSE,152,0.0,1.0,90,0.00,,,0.00,76,Wunderground v.1.15,2013-06-21 10:49:00,
2013-06-21 06:55:00,60.5,57.6,30.33,WNW,289,1.0,2.0,90,0.00,,,0.00,88,Wunderground v.1.15,2013-06-21 10:55:00,
2013-06-21 07:00:00,61.0,58.0,30.33,WNW,289,1.0,1.0,90,0.00,,,0.00,95,Wunderground v.1.15,2013-06-21 11:00:00,
2013-06-21 07:06:00,61.3,58.0,30.33,WNW,289,0.0,1.0,89,0.00,,,0.00,105,Wunderground v.1.15,2013-06-21 11:06:00,
2013-06-21 07:11:00,61.5,57.9,30.33,South,182,0.0,1.0,88,0.00,,,0.00,102,Wunderground v.1.15,2013-06-21 11:11:00,
2013-06-21 07:17:00,61.6,58.0,30.33,South,174,0.0,3.0,88,0.00,,,0.00,137,Wunderground v.1.15,2013-06-21 11:17:00,
2013-06-21 07:23:00,61.8,57.9,30.33,South,174,1.0,2.0,87,0.00,,,0.00,132,Wunderground v.1.15,2013-06-21 11:23:00,
2013-06-21 07:29:00,61.9,58.0,30.33,South,174,1.0,2.0,87,0.00,,,0.00,148,Wunderground v.1.15,2013-06-21 11:29:00,
2013-06-21 07:34:00,62.2,58.0,30.33,South,174,0.0,1.0,86,0.00,,,0.00,109,Wunderground v.1.15,2013-06-21 11:34:00,
2013-06-21 07:40:00,62.7,57.8,30.33,WSW,244,0.0,1.0,84,0.00,,,0.00,141,Wunderground v.1.15,2013-06-21 11:40:00,
2013-06-21 07:46:00,63.2,57.6,30.33,SSE,158,0.0,1.0,82,0.00,,,0.00,197,Wunderground v.1.15,2013-06-21 11:46:00,
2013-06-21 07:52:00,63.8,57.9,30.33,SSE,150,1.0,2.0,81,0.00,,,0.00,227,Wunderground v.1.15,2013-06-21 11:52:00,
2013-06-21 07:58:00,64.3,58.0,30.33,SSE,150,1.0,2.0,80,0.00,,,0.00,116,Wunderground v.1.15,2013-06-21 11:58:00,
2013-06-21 08:04:00,64.8,57.4,30.33,SE,127,1.0,3.0,77,0.00,,,0.00,297,Wunderground v.1.15,2013-06-21 12:04:00,
2013-06-21 08:10:00,65.4,58.0,30.33,ESE,119,1.0,1.0,77,0.00,,,0.00,364,Wunderground v.1.15,2013-06-21 12:10:00,
2013-06-21 08:16:00,66.0,57.8,30.33,SE,143,2.0,4.0,75,0.00,,,0.00,403,Wunderground v.1.15,2013-06-21 12:16:00,
2013-06-21 08:22:00,66.6,57.7,30.33,SE,127,2.0,2.0,73,0.00,,,0.00,452,Wunderground v.1.15,2013-06-21 12:22:00,
2013-06-21 08:28:00,66.9,58.0,30.33,NNW,341,2.0,2.0,73,0.00,,,0.00,341,Wunderground v.1.15,2013-06-21 12:28:00,
2013-06-21 08:34:00,67.6,57.9,30.33,SSE,164,2.0,2.0,71,0.00,,,0.00,475,Wunderground v.1.15,2013-06-21 12:34:00,
2013-06-21 08:40:00,68.3,57.3,30.33,ESE,103,2.0,3.0,68,0.00,,,0.00,489,Wunderground v.1.15,2013-06-21 12:40:00,
2013-06-21 08:46:00,68.5,57.1,30.33,SE,132,3.0,5.0,67,0.00,,,0.00,473,Wunderground v.1.15,2013-06-21 12:46:00,
2013-06-21 08:52:00,68.9,56.6,30.33,ESE,123,3.0,6.0,65,0.00,,,0.00,529,Wunderground v.1.15,2013-06-21 12:52:00,
2013-06-21 08:58:00,69.5,56.3,30.33,ESE,113,3.0,6.0,63,0.00,,,0.00,522,Wunderground v.1.15,2013-06-21 12:58:00,
2013-06-21 09:04:00,69.6,56.9,30.33,South,171,4.0,7.0,64,0.00,,,0.00,529,Wunderground v.1.15,2013-06-21 13:04:00,
2013-06-21 09:09:00,69.7,57.4,30.33,NE,40,4.0,7.0,65,0.00,,,0.00,545,Wunderground v.1.15,2013-06-21 13:09:00,
2013-06-21 09:15:00,70.3,57.1,30.33,SSE,157,3.0,7.0,63,0.00,,,0.00,552,Wunderground v.1.15,2013-06-21 13:15:00,
2013-06-21 09:21:00,70.5,56.9,30.33,ENE,70,3.0,7.0,62,0.00,,,0.00,568,Wunderground v.1.15,2013-06-21 13:21:00,
2013-06-21 09:27:00,70.7,57.0,30.33,ESE,115,3.0,7.0,62,0.00,,,0.00,592,Wunderground v.1.15,2013-06-21 13:27:00,
2013-06-21 09:33:00,70.7,57.5,30.32,SE,135,5.0,7.0,63,0.00,,,0.00,615,Wunderground v.1.15,2013-06-21 13:33:00,
2013-06-21 09:38:00,71.0,57.8,30.33,SE,135,4.0,7.0,63,0.00,,,0.00,635,Wunderground v.1.15,2013-06-21 13:38:00,
2013-06-21 09:43:00,71.5,57.3,30.32,ENE,67,3.0,7.0,61,0.00,,,0.00,650,Wunderground v.1.15,2013-06-21 13:43:00,
2013-06-21 09:49:00,72.2,58.5,30.32,South,169,2.0,7.0,62,0.00,,,0.00,689,Wunderground v.1.15,2013-06-21 13:49:00,
2013-06-21 09:54:00,72.7,57.5,30.32,ENE,72,2.0,7.0,59,0.00,,,0.00,691,Wunderground v.1.15,2013-06-21 13:54:00,
2013-06-21 10:00:00,73.1,57.4,30.32,NNW,335,3.0,3.0,58,0.00,,,0.00,733,Wunderground v.1.15,2013-06-21 14:00:00,
2013-06-21 10:06:00,73.0,57.3,30.32,SE,134,3.0,4.0,58,0.00,,,0.00,712,Wunderground v.1.15,2013-06-21 14:06:00,
2013-06-21 10:12:00,72.6,58.8,30.32,WNW,287,3.0,4.0,62,0.00,,,0.00,241,Wunderground v.1.15,2013-06-21 14:12:00,
2013-06-21 10:18:00,72.6,57.0,30.32,NE,44,3.0,4.0,58,0.00,,,0.00,673,Wunderground v.1.15,2013-06-21 14:18:00,
2013-06-21 10:23:00,73.2,58.5,30.33,West,281,2.0,4.0,60,0.00,,,0.00,763,Wunderground v.1.15,2013-06-21 14:23:00,
2013-06-21 10:29:00,73.9,57.7,30.33,WNW,288,2.0,4.0,57,0.00,,,0.00,731,Wunderground v.1.15,2013-06-21 14:29:00,
2013-06-21 10:35:00,74.0,57.3,30.33,SE,131,3.0,7.0,56,0.00,,,0.00,810,Wunderground v.1.15,2013-06-21 14:35:00,
2013-06-21 10:41:00,73.9,56.7,30.33,West,268,3.0,6.0,55,0.00,,,0.00,817,Wunderground v.1.15,2013-06-21 14:41:00,
2013-06-21 10:46:00,73.9,56.7,30.33,ESE,123,3.0,6.0,55,0.00,,,0.00,831,Wunderground v.1.15,2013-06-21 14:46:00,
2013-06-21 10:52:00,74.5,57.8,30.33,East,98,2.0,5.0,56,0.00,,,0.00,877,Wunderground v.1.15,2013-06-21 14:52:00,
2013-06-21 10:57:00,74.9,57.6,30.33,ESE,110,3.0,5.0,55,0.00,,,0.00,949,Wunderground v.1.15,2013-06-21 14:57:00,
2013-06-21 11:03:00,75.2,60.4,30.33,NW,305,3.0,6.0,60,0.00,,,0.00,886,Wunderground v.1.15,2013-06-21 15:03:00,
2013-06-21 11:09:00,75.7,57.9,30.33,SE,130,2.0,6.0,54,0.00,,,0.00,802,Wunderground v.1.15,2013-06-21 15:09:00,
2013-06-21 11:15:00,75.7,58.4,30.33,East,80,2.0,6.0,55,0.00,,,0.00,965,Wunderground v.1.15,2013-06-21 15:15:00,
2013-06-21 11:21:00,76.1,58.8,30.33,SE,127,2.0,4.0,55,0.00,,,0.00,888,Wunderground v.1.15,2013-06-21 15:21:00,
2013-06-21 11:27:00,76.2,57.8,30.33,SE,134,3.0,6.0,53,0.00,,,0.00,817,Wunderground v.1.15,2013-06-21 15:27:00,
2013-06-21 11:32:00,76.0,59.2,30.33,ESE,123,4.0,7.0,56,0.00,,,0.00,861,Wunderground v.1.15,2013-06-21 15:32:00,
2013-06-21 11:37:00,76.0,58.2,30.33,SE,136,4.0,7.0,54,0.00,,,0.00,853,Wunderground v.1.15,2013-06-21 15:37:00,
2013-06-21 11:43:00,76.9,59.0,30.33,ESE,119,3.0,6.0,54,0.00,,,0.00,870,Wunderground v.1.15,2013-06-21 15:43:00,
2013-06-21 11:48:00,76.7,58.8,30.33,NW,325,4.0,7.0,54,0.00,,,0.00,851,Wunderground v.1.15,2013-06-21 15:48:00,
2013-06-21 11:54:00,76.9,58.5,30.34,SE,138,4.0,6.0,53,0.00,,,0.00,875,Wunderground v.1.15,2013-06-21 15:54:00,
2013-06-21 12:00:00,77.0,58.0,30.34,ESE,113,3.0,3.0,52,0.00,,,0.00,417,Wunderground v.1.15,2013-06-21 16:00:00,
2013-06-21 12:06:00,76.6,58.2,30.33,ESE,117,3.0,5.0,53,0.00,,,0.00,874,Wunderground v.1.15,2013-06-21 16:06:00,
2013-06-21 12:11:00,76.7,58.8,30.33,ESE,115,3.0,4.0,54,0.00,,,0.00,884,Wunderground v.1.15,2013-06-21 16:11:00,
2013-06-21 12:17:00,77.2,58.7,30.33,SSE,150,3.0,6.0,53,0.00,,,0.00,360,Wunderground v.1.15,2013-06-21 16:17:00,
2013-06-21 12:22:00,77.3,59.9,30.33,SSE,154,4.0,5.0,55,0.00,,,0.00,891,Wunderground v.1.15,2013-06-21 16:22:00,
2013-06-21 12:28:00,77.7,59.7,30.33,SE,144,3.0,7.0,54,0.00,,,0.00,933,Wunderground v.1.15,2013-06-21 16:28:00,
2013-06-21 12:33:00,78.1,59.6,30.33,SE,134,4.0,8.0,53,0.00,,,0.00,935,Wunderground v.1.15,2013-06-21 16:33:00,
2013-06-21 12:38:00,78.1,59.0,30.32,SSE,165,5.0,9.0,52,0.00,,,0.00,856,Wunderground v.1.15,2013-06-21 16:38:00,
2013-06-21 12:43:00,78.1,59.0,30.32,SE,128,5.0,8.0,52,0.00,,,0.00,930,Wunderground v.1.15,2013-06-21 16:43:00,
2013-06-21 12:49:00,78.2,59.7,30.31,SSE,159,5.0,8.0,53,0.00,,,0.00,896,Wunderground v.1.15,2013-06-21 16:49:00,
2013-06-21 12:55:00,78.5,59.4,30.31,SE,137,4.0,7.0,52,0.00,,,0.00,914,Wunderground v.1.15,2013-06-21 16:55:00,
2013-06-21 13:00:00,79.0,59.9,30.30,South,179,4.0,4.0,52,0.00,,,0.00,918,Wunderground v.1.15,2013-06-21 17:00:00,
2013-06-21 13:06:00,78.9,59.8,30.30,ESE,119,4.0,8.0,52,0.00,,,0.00,912,Wunderground v.1.15,2013-06-21 17:06:00,
2013-06-21 13:12:00,79.5,59.8,30.30,SE,126,4.0,12.0,51,0.00,,,0.00,911,Wunderground v.1.15,2013-06-21 17:12:00,
2013-06-21 13:17:00,79.1,59.4,30.29,SE,144,6.0,12.0,51,0.00,,,0.00,902,Wunderground v.1.15,2013-06-21 17:17:00,
2013-06-21 13:23:00,79.4,61.8,30.30,East,98,5.0,8.0,55,0.00,,,0.00,870,Wunderground v.1.15,2013-06-21 17:23:00,
2013-06-21 13:29:00,80.1,60.3,30.30,SE,127,4.0,8.0,51,0.00,,,0.00,863,Wunderground v.1.15,2013-06-21 17:29:00,
2013-06-21 13:34:00,80.5,60.1,30.30,ESE,119,4.0,8.0,50,0.00,,,0.00,868,Wunderground v.1.15,2013-06-21 17:34:00,
2013-06-21 13:39:00,80.6,60.8,30.30,WNW,300,4.0,8.0,51,0.00,,,0.00,879,Wunderground v.1.15,2013-06-21 17:39:00,
2013-06-21 13:45:00,81.0,61.2,30.30,WSW,248,4.0,8.0,51,0.00,,,0.00,932,Wunderground v.1.15,2013-06-21 17:45:00,
2013-06-21 13:46:00,81.0,61.2,30.30,SW,235,4.0,8.0,51,0.00,,,0.00,940,Wunderground v.1.15,2013-06-21 17:46:00,
2013-06-21 13:48:00,81.2,61.4,30.30,WNW,296,3.0,8.0,51,0.00,,,0.00,932,Wunderground v.1.15,2013-06-21 17:48:00,
2013-06-21 13:50:00,81.5,61.6,30.30,WNW,290,3.0,8.0,51,0.00,,,0.00,946,Wunderground v.1.15,2013-06-21 17:50:00,
2013-06-21 13:54:00,81.5,61.1,30.30,WNW,299,3.0,8.0,50,0.00,,,0.00,953,Wunderground v.1.15,2013-06-21 17:54:00,
2013-06-21 14:01:00,81.5,59.9,30.31,SE,130,5.0,12.0,48,0.00,,,0.00,956,Wunderground v.1.15,2013-06-21 18:01:00,
2013-06-21 14:05:00,80.9,60.5,30.30,ESE,123,5.0,12.0,50,0.00,,,0.00,816,Wunderground v.1.15,2013-06-21 18:05:00,
2013-06-21 14:11:00,81.5,60.5,30.30,West,281,4.0,12.0,49,0.00,,,0.00,958,Wunderground v.1.15,2013-06-21 18:11:00,
2013-06-21 14:17:00,81.7,60.1,30.30,NW,304,3.0,12.0,48,0.00,,,0.00,236,Wunderground v.1.15,2013-06-21 18:17:00,
2013-06-21 14:23:00,81.7,60.7,30.29,SE,142,3.0,12.0,49,0.00,,,0.00,1009,Wunderground v.1.15,2013-06-21 18:23:00,
2013-06-21 14:24:00,81.6,60.6,30.29,South,178,3.0,12.0,49,0.00,,,0.00,1009,Wunderground v.1.15,2013-06-21 18:24:00,
2013-06-21 14:25:00,81.6,61.7,30.29,ESE,118,3.0,12.0,51,0.00,,,0.00,953,Wunderground v.1.15,2013-06-21 18:25:00,
2013-06-21 14:27:00,81.7,60.1,30.29,SE,140,3.0,12.0,48,0.00,,,0.00,926,Wunderground v.1.15,2013-06-21 18:27:00,
2013-06-21 14:29:00,81.9,61.4,30.29,South,178,4.0,12.0,50,0.00,,,0.00,925,Wunderground v.1.15,2013-06-21 18:29:00,
2013-06-21 14:30:00,82.0,60.4,30.29,SE,138,4.0,12.0,48,0.00,,,0.00,919,Wunderground v.1.15,2013-06-21 18:30:00,
2013-06-21 14:36:00,81.8,59.0,30.28,SE,136,5.0,12.0,46,0.00,,,0.00,891,Wunderground v.1.15,2013-06-21 18:36:00,
2013-06-21 14:41:00,81.8,59.6,30.28,East,101,5.0,7.0,47,0.00,,,0.00,872,Wunderground v.1.15,2013-06-21 18:41:00,
2013-06-21 14:46:00,81.5,59.9,30.28,East,96,6.0,12.0,48,0.00,,,0.00,860,Wunderground v.1.15,2013-06-21 18:46:00,
2013-06-21 14:47:00,81.4,59.8,30.28,SSE,158,6.0,12.0,48,0.00,,,0.00,858,Wunderground v.1.15,2013-06-21 18:47:00,
2013-06-21 14:48:00,81.4,59.8,30.28,ESE,121,6.0,12.0,48,0.00,,,0.00,868,Wunderground v.1.15,2013-06-21 18:48:00,
2013-06-21 14:54:00,82.1,59.9,30.28,ESE,120,5.0,12.0,47,0.00,,,0.00,921,Wunderground v.1.15,2013-06-21 18:54:00,
2013-06-21 14:58:00,82.7,61.6,30.27,ESE,120,4.0,12.0,49,0.00,,,0.00,909,Wunderground v.1.15,2013-06-21 18:58:00,
2013-06-21 15:03:00,82.4,60.1,30.27,ESE,109,5.0,10.0,47,0.00,,,0.00,258,Wunderground v.1.15,2013-06-21 19:03:00,
2013-06-21 15:09:00,81.8,60.2,30.27,SE,130,5.0,10.0,48,0.00,,,0.00,250,Wunderground v.1.15,2013-06-21 19:09:00,
2013-06-21 15:15:00,81.5,59.9,30.27,South,180,3.0,10.0,48,0.00,,,0.00,267,Wunderground v.1.15,2013-06-21 19:15:00,
2013-06-21 15:21:00,81.4,60.4,30.27,SSE,147,4.0,10.0,49,0.00,,,0.00,877,Wunderground v.1.15,2013-06-21 19:21:00,
2013-06-21 15:27:00,81.3,60.3,30.27,SE,144,5.0,10.0,49,0.00,,,0.00,313,Wunderground v.1.15,2013-06-21 19:27:00,
2013-06-21 15:33:00,81.2,59.6,30.28,SE,133,4.0,10.0,48,0.00,,,0.00,267,Wunderground v.1.15,2013-06-21 19:33:00,
2013-06-21 15:39:00,81.2,60.2,30.28,West,265,3.0,10.0,49,0.00,,,0.00,257,Wunderground v.1.15,2013-06-21 19:39:00,
2013-06-21 15:44:00,81.4,60.4,30.28,SE,136,2.0,10.0,49,0.00,,,0.00,698,Wunderground v.1.15,2013-06-21 19:44:00,
2013-06-21 15:46:00,81.6,60.6,30.28,ESE,103,3.0,10.0,49,0.00,,,0.00,877,Wunderground v.1.15,2013-06-21 19:46:00,
2013-06-21 15:51:00,81.7,60.1,30.28,SSE,163,5.0,10.0,48,0.00,,,0.00,877,Wunderground v.1.15,2013-06-21 19:51:00,
2013-06-21 15:57:00,81.6,59.4,30.28,SSE,147,6.0,10.0,47,0.00,,,0.00,243,Wunderground v.1.15,2013-06-21 19:57:00,
2013-06-21 16:03:00,81.4,59.8,30.28,SSE,148,5.0,6.0,48,0.00,,,0.00,278,Wunderground v.1.15,2013-06-21 20:03:00,
2013-06-21 16:09:00,81.5,61.1,30.28,ESE,119,4.0,6.0,50,0.00,,,0.00,367,Wunderground v.1.15,2013-06-21 20:09:00,
2013-06-21 16:14:00,81.6,60.6,30.28,SE,138,4.0,7.0,49,0.00,,,0.00,290,Wunderground v.1.15,2013-06-21 20:14:00,
2013-06-21 16:20:00,81.4,60.4,30.27,SSE,151,5.0,5.0,49,0.00,,,0.00,248,Wunderground v.1.15,2013-06-21 20:20:00,
2013-06-21 16:25:00,81.5,60.5,30.27,SSE,147,5.0,6.0,49,0.00,,,0.00,726,Wunderground v.1.15,2013-06-21 20:25:00,
2013-06-21 16:31:00,82.0,61.0,30.26,ESE,121,4.0,6.0,49,0.00,,,0.00,279,Wunderground v.1.15,2013-06-21 20:31:00,
2013-06-21 16:36:00,81.9,60.9,30.26,SE,127,4.0,6.0,49,0.00,,,0.00,211,Wunderground v.1.15,2013-06-21 20:36:00,
2013-06-21 16:41:00,81.9,60.3,30.26,ESE,114,5.0,5.0,48,0.00,,,0.00,663,Wunderground v.1.15,2013-06-21 20:41:00,
2013-06-21 16:47:00,81.8,60.2,30.26,SSW,192,5.0,5.0,48,0.00,,,0.00,250,Wunderground v.1.15,2013-06-21 20:47:00,
2013-06-21 16:53:00,81.7,61.2,30.26,WNW,290,4.0,5.0,50,0.00,,,0.00,689,Wunderground v.1.15,2013-06-21 20:53:00,
2013-06-21 16:59:00,81.9,60.9,30.26,SE,125,4.0,10.0,49,0.00,,,0.00,287,Wunderground v.1.15,2013-06-21 20:59:00,
2013-06-21 17:05:00,81.9,60.3,30.27,SE,144,4.0,9.0,48,0.00,,,0.00,257,Wunderground v.1.15,2013-06-21 21:05:00,
2013-06-21 17:08:00,81.6,60.0,30.27,SE,133,5.0,9.0,48,0.00,,,0.00,339,Wunderground v.1.15,2013-06-21 21:08:00,
2013-06-21 17:14:00,81.5,61.6,30.27,WNW,286,5.0,9.0,51,0.00,,,0.00,332,Wunderground v.1.15,2013-06-21 21:14:00,
2013-06-21 17:19:00,81.7,60.7,30.27,East,90,4.0,9.0,49,0.00,,,0.00,258,Wunderground v.1.15,2013-06-21 21:19:00,
2013-06-21 17:25:00,81.4,60.4,30.27,SE,138,5.0,7.0,49,0.00,,,0.00,260,Wunderground v.1.15,2013-06-21 21:25:00,
2013-06-21 17:31:00,81.2,60.8,30.27,South,169,5.0,7.0,50,0.00,,,0.00,250,Wunderground v.1.15,2013-06-21 21:31:00,
2013-06-21 17:37:00,81.1,60.7,30.27,SE,130,5.0,10.0,50,0.00,,,0.00,221,Wunderground v.1.15,2013-06-21 21:37:00,
2013-06-21 17:42:00,81.3,60.9,30.26,East,84,4.0,7.0,50,0.00,,,0.00,211,Wunderground v.1.15,2013-06-21 21:42:00,
2013-06-21 17:47:00,81.4,61.0,30.26,ESE,123,3.0,7.0,50,0.00,,,0.00,408,Wunderground v.1.15,2013-06-21 21:47:00,
2013-06-21 17:53:00,81.4,61.0,30.26,SE,136,4.0,7.0,50,0.00,,,0.00,373,Wunderground v.1.15,2013-06-21 21:53:00,
2013-06-21 17:59:00,81.4,61.0,30.26,South,172,4.0,7.0,50,0.00,,,0.00,348,Wunderground v.1.15,2013-06-21 21:59:00,
2013-06-21 18:05:00,81.5,61.6,30.25,SSE,161,4.0,6.0,51,0.00,,,0.00,327,Wunderground v.1.15,2013-06-21 22:05:00,
2013-06-21 18:11:00,81.7,61.2,30.26,ESE,121,3.0,4.0,50,0.00,,,0.00,251,Wunderground v.1.15,2013-06-21 22:11:00,
2013-06-21 18:17:00,81.3,60.9,30.26,SSE,165,4.0,6.0,50,0.00,,,0.00,302,Wunderground v.1.15,2013-06-21 22:17:00,
2013-06-21 18:23:00,80.9,61.1,30.26,SE,126,4.0,6.0,51,0.00,,,0.00,116,Wunderground v.1.15,2013-06-21 22:23:00,
2013-06-21 18:29:00,80.9,61.1,30.25,SSE,166,4.0,6.0,51,0.00,,,0.00,267,Wunderground v.1.15,2013-06-21 22:29:00,
2013-06-21 18:35:00,80.7,61.4,30.26,SE,130,4.0,7.0,52,0.00,,,0.00,98,Wunderground v.1.15,2013-06-21 22:35:00,
2013-06-21 18:41:00,80.5,61.3,30.26,SE,144,4.0,7.0,52,0.00,,,0.00,202,Wunderground v.1.15,2013-06-21 22:41:00,
2013-06-21 18:47:00,80.4,61.2,30.26,SE,137,4.0,7.0,52,0.00,,,0.00,206,Wunderground v.1.15,2013-06-21 22:47:00,
2013-06-21 18:52:00,80.3,61.1,30.26,SSE,155,4.0,6.0,52,0.00,,,0.00,181,Wunderground v.1.15,2013-06-21 22:52:00,
2013-06-21 18:58:00,80.1,60.9,30.26,SSE,161,4.0,7.0,52,0.00,,,0.00,149,Wunderground v.1.15,2013-06-21 22:58:00,
2013-06-21 19:04:00,80.2,61.0,30.26,South,170,5.0,6.0,52,0.00,,,0.00,114,Wunderground v.1.15,2013-06-21 23:04:00,
2013-06-21 19:10:00,80.2,61.5,30.26,SE,138,3.0,5.0,53,0.00,,,0.00,84,Wunderground v.1.15,2013-06-21 23:10:00,
2013-06-21 19:15:00,80.1,60.9,30.26,SSE,160,3.0,5.0,52,0.00,,,0.00,90,Wunderground v.1.15,2013-06-21 23:15:00,
2013-06-21 19:21:00,80.0,61.3,30.26,SE,126,3.0,5.0,53,0.00,,,0.00,86,Wunderground v.1.15,2013-06-21 23:21:00,
2013-06-21 19:27:00,79.6,60.4,30.26,SE,128,3.0,5.0,52,0.00,,,0.00,62,Wunderground v.1.15,2013-06-21 23:27:00,
2013-06-21 19:32:00,79.3,60.7,30.26,SSE,160,4.0,7.0,53,0.00,,,0.00,49,Wunderground v.1.15,2013-06-21 23:32:00,
2013-06-21 19:38:00,79.0,60.4,30.26,South,172,3.0,7.0,53,0.00,,,0.00,32,Wunderground v.1.15,2013-06-21 23:38:00,
2013-06-21 19:43:00,78.7,60.7,30.26,SSE,147,3.0,5.0,54,0.00,,,0.00,28,Wunderground v.1.15,2013-06-21 23:43:00,
2013-06-21 19:49:00,78.5,61.0,30.26,SE,140,3.0,5.0,55,0.00,,,0.00,26,Wunderground v.1.15,2013-06-21 23:49:00,
2013-06-21 19:55:00,78.3,60.8,30.26,SSE,155,3.0,6.0,55,0.00,,,0.00,23,Wunderground v.1.15,2013-06-21 23:55:00,
2013-06-21 20:00:00,77.9,60.9,30.25,SSE,164,3.0,3.0,56,0.00,,,0.00,19,Wunderground v.1.15,2013-06-22 00:00:00,
2013-06-21 20:06:00,77.5,60.6,30.25,SSE,149,2.0,4.0,56,0.00,,,0.00,19,Wunderground v.1.15,2013-06-22 00:06:00,
2013-06-21 20:11:00,77.2,60.8,30.25,South,180,2.0,3.0,57,0.00,,,0.00,16,Wunderground v.1.15,2013-06-22 00:11:00,
2013-06-21 20:17:00,76.9,60.5,30.25,South,173,2.0,4.0,57,0.00,,,0.00,12,Wunderground v.1.15,2013-06-22 00:17:00,
2013-06-21 20:22:00,76.7,60.8,30.26,SE,144,2.0,4.0,58,0.00,,,0.00,11,Wunderground v.1.15,2013-06-22 00:22:00,
2013-06-21 20:28:00,76.5,60.6,30.26,SSE,167,2.0,4.0,58,0.00,,,0.00,9,Wunderground v.1.15,2013-06-22 00:28:00,
2013-06-21 20:34:00,76.3,60.4,30.26,SSE,161,2.0,4.0,58,0.00,,,0.00,5,Wunderground v.1.15,2013-06-22 00:34:00,
2013-06-21 20:40:00,76.1,60.7,30.25,SSE,157,2.0,4.0,59,0.00,,,0.00,0,Wunderground v.1.15,2013-06-22 00:40:00,
2013-06-21 20:45:00,75.8,60.4,30.25,South,173,2.0,4.0,59,0.00,,,0.00,0,Wunderground v.1.15,2013-06-22 00:45:00,
2013-06-21 20:50:00,75.7,60.4,30.25,South,169,2.0,4.0,59,0.00,,,0.00,0,Wunderground v.1.15,2013-06-22 00:50:00,
2013-06-21 20:56:00,75.6,60.3,30.25,SE,128,2.0,4.0,59,0.00,,,0.00,0,Wunderground v.1.15,2013-06-22 00:56:00,
2013-06-21 21:02:00,75.4,60.1,30.26,SE,126,3.0,4.0,59,0.00,,,0.00,0,Wunderground v.1.15,2013-06-22 01:02:00,
2013-06-21 21:08:00,75.3,60.0,30.26,SSE,153,2.0,4.0,59,0.00,,,0.00,0,Wunderground v.1.15,2013-06-22 01:08:00,
2013-06-21 21:14:00,75.1,60.3,30.26,South,169,1.0,4.0,60,0.00,,,0.00,0,Wunderground v.1.15,2013-06-22 01:14:00,
2013-06-21 21:20:00,74.9,60.1,30.26,SSE,151,1.0,1.0,60,0.00,,,0.00,0,Wunderground v.1.15,2013-06-22 01:20:00,
2013-06-21 21:26:00,74.7,59.9,30.26,SE,145,1.0,4.0,60,0.00,,,0.00,0,Wunderground v.1.15,2013-06-22 01:26:00,
2013-06-21 21:32:00,74.4,60.1,30.27,SE,145,1.0,4.0,61,0.00,,,0.00,0,Wunderground v.1.15,2013-06-22 01:32:00,
2013-06-21 21:38:00,74.2,59.9,30.27,SE,145,0.0,4.0,61,0.00,,,0.00,0,Wunderground v.1.15,2013-06-22 01:38:00,
2013-06-21 21:44:00,73.9,59.6,30.27,SE,145,0.0,4.0,61,0.00,,,0.00,0,Wunderground v.1.15,2013-06-22 01:44:00,
2013-06-21 21:50:00,73.7,59.9,30.27,SE,136,1.0,1.0,62,0.00,,,0.00,0,Wunderground v.1.15,2013-06-22 01:50:00,
2013-06-21 21:55:00,73.6,59.3,30.27,SE,136,0.0,4.0,61,0.00,,,0.00,0,Wunderground v.1.15,2013-06-22 01:55:00,
2013-06-21 22:00:00,73.4,59.1,30.27,South,169,0.0,2.0,61,0.00,,,0.00,0,Wunderground v.1.15,2013-06-22 02:00:00,
2013-06-21 22:06:00,73.4,59.1,30.27,SE,142,1.0,2.0,61,0.00,,,0.00,0,Wunderground v.1.15,2013-06-22 02:06:00,
2013-06-21 22:12:00,73.3,58.6,30.27,ESE,123,1.0,2.0,60,0.00,,,0.00,0,Wunderground v.1.15,2013-06-22 02:12:00,
2013-06-21 22:17:00,73.3,58.6,30.27,ESE,121,1.0,3.0,60,0.00,,,0.00,0,Wunderground v.1.15,2013-06-22 02:17:00,
2013-06-21 22:23:00,73.2,58.9,30.28,ESE,102,1.0,2.0,61,0.00,,,0.00,0,Wunderground v.1.15,2013-06-22 02:23:00,
2013-06-21 22:29:00,72.9,59.1,30.28,NNE,13,1.0,2.0,62,0.00,,,0.00,0,Wunderground v.1.15,2013-06-22 02:29:00,
2013-06-21 22:35:00,72.5,59.2,30.28,NNE,13,0.0,2.0,63,0.00,,,0.00,0,Wunderground v.1.15,2013-06-22 02:35:00,
2013-06-21 22:42:00,71.9,58.6,30.28,NNW,343,1.0,2.0,63,0.00,,,0.00,0,Wunderground v.1.15,2013-06-22 02:42:00,
2013-06-21 22:48:00,71.7,58.4,30.28,NW,326,1.0,2.0,63,0.00,,,0.00,0,Wunderground v.1.15,2013-06-22 02:48:00,
2013-06-21 22:54:00,71.5,58.2,30.28,NW,326,1.0,2.0,63,0.00,,,0.00,0,Wunderground v.1.15,2013-06-22 02:54:00,
2013-06-21 22:59:00,71.4,58.1,30.28,NW,326,1.0,2.0,63,0.00,,,0.00,0,Wunderground v.1.15,2013-06-22 02:59:00,
2013-06-21 23:05:00,71.3,58.1,30.29,North,5,1.0,2.0,63,0.00,,,0.00,0,Wunderground v.1.15,2013-06-22 03:05:00,
2013-06-21 23:10:00,71.3,57.6,30.28,WNW,296,1.0,2.0,62,0.00,,,0.00,0,Wunderground v.1.15,2013-06-22 03:10:00,
2013-06-21 23:16:00,71.4,57.2,30.29,SE,136,1.0,4.0,61,0.00,,,0.00,0,Wunderground v.1.15,2013-06-22 03:16:00,
2013-06-21 23:21:00,71.5,57.3,30.29,West,280,1.0,2.0,61,0.00,,,0.00,0,Wunderground v.1.15,2013-06-22 03:21:00,
2013-06-21 23:27:00,71.5,57.3,30.29,SE,126,1.0,2.0,61,0.00,,,0.00,0,Wunderground v.1.15,2013-06-22 03:27:00,
2013-06-21 23:32:00,71.6,57.4,30.29,SE,144,2.0,2.0,61,0.00,,,0.00,0,Wunderground v.1.15,2013-06-22 03:32:00,
2013-06-21 23:38:00,71.7,57.1,30.29,SSE,149,2.0,2.0,60,0.00,,,0.00,0,Wunderground v.1.15,2013-06-22 03:38:00,
2013-06-21 23:43:00,71.6,57.4,30.28,SE,145,1.0,3.0,61,0.00,,,0.00,0,Wunderground v.1.15,2013-06-22 03:43:00,
2013-06-21 23:49:00,71.3,57.2,30.28,SSE,153,1.0,3.0,61,0.00,,,0.00,0,Wunderground v.1.15,2013-06-22 03:49:00,
2013-06-21 23:55:00,71.1,57.0,30.28,WSW,254,1.0,2.0,61,0.00,,,0.00,0,Wunderground v.1.15,2013-06-22 03:55:00,